Time;durP1;ratioP1;P1;durP2;ratioP2;P2;SDS_P1;SDS_P2;PMS_P1;PMS_P2;Temp;Humidity;BMP_temperature;BMP_pressure;BME280_temperature;BME280_humidity;BME280_pressure;Samples;Min_cycle;Max_cycle;Signal;HPM_P1;HPM_P2
2023/09/29 00:00:31;;;;;;;6.90;3.25;;;;;;;22.11;100.00;96509.06;5030920;28;20029;-86
2023/09/29 00:02:57;;;;;;;8.23;3.30;;;;;;;22.36;100.00;96509.78;5032355;28;20025;-87
2023/09/29 00:05:23;;;;;;;7.85;3.92;;;;;;;22.11;100.00;96511.75;5011087;28;20114;-86
2023/09/29 00:07:51;;;;;;;6.47;3.35;;;;;;;21.87;100.00;96503.59;5008027;28;20252;-86
2023/09/29 00:10:17;;;;;;;5.95;3.28;;;;;;;22.04;100.00;96508.34;5029151;28;20033;-86
2023/09/29 00:12:43;;;;;;;6.15;3.40;;;;;;;21.86;100.00;96501.94;5028278;28;20117;-86
2023/09/29 00:15:10;;;;;;;7.75;3.25;;;;;;;22.14;100.00;96503.25;5014761;28;20033;-86
2023/09/29 00:17:36;;;;;;;6.22;3.40;;;;;;;22.30;100.00;96504.50;5034205;28;20583;-86
2023/09/29 00:20:11;;;;;;;6.35;3.47;;;;;;;22.28;100.00;96503.94;5029413;28;20033;-86
2023/09/29 00:22:37;;;;;;;7.10;3.53;;;;;;;22.23;100.00;96504.63;5028464;28;20056;-86
2023/09/29 00:25:05;;;;;;;7.17;3.53;;;;;;;21.87;100.00;96506.25;5035587;28;20394;-87
2023/09/29 00:27:30;;;;;;;7.82;3.80;;;;;;;21.94;100.00;96505.38;5010888;28;20090;-86
2023/09/29 00:29:56;;;;;;;9.23;4.10;;;;;;;22.18;100.00;96499.13;5031318;28;20033;-87
2023/09/29 00:32:21;;;;;;;8.65;4.40;;;;;;;21.99;100.00;96500.94;5032701;28;20032;-86
2023/09/29 00:34:47;;;;;;;7.28;3.67;;;;;;;21.88;100.00;96502.53;5031755;28;20464;-86
2023/09/29 00:37:12;;;;;;;6.05;3.38;;;;;;;22.10;100.00;96496.72;5019538;28;20025;-86
2023/09/29 00:39:38;;;;;;;7.78;3.95;;;;;;;22.21;100.00;96497.84;5048635;28;20017;-86
2023/09/29 00:42:06;;;;;;;6.95;3.40;;;;;;;22.10;100.00;96486.81;5031166;28;20021;-87
2023/09/29 00:44:33;;;;;;;6.68;3.67;;;;;;;22.13;100.00;96490.88;5018395;28;20095;-86
2023/09/29 00:47:01;;;;;;;6.50;3.78;;;;;;;21.88;100.00;96489.13;5013414;28;20045;-86
2023/09/29 00:49:29;;;;;;;6.57;3.85;;;;;;;21.79;100.00;96482.44;5013435;28;20036;-86
2023/09/29 00:52:00;;;;;;;8.43;4.47;;;;;;;21.62;100.00;96484.09;5036796;28;20033;-86
2023/09/29 00:54:32;;;;;;;6.90;3.83;;;;;;;21.60;100.00;96486.19;5031978;28;20399;-86
2023/09/29 00:57:00;;;;;;;7.10;3.90;;;;;;;21.86;100.00;96490.41;5032574;28;20117;-85
2023/09/29 00:59:31;;;;;;;7.00;3.53;;;;;;;21.79;100.00;96485.13;5016105;28;20032;-87
2023/09/29 01:01:57;;;;;;;7.75;3.85;;;;;;;21.55;100.00;96486.84;5014890;28;20042;-86
2023/09/29 01:04:23;;;;;;;8.43;4.00;;;;;;;21.41;100.00;96478.13;5011188;28;20025;-86
2023/09/29 01:06:50;;;;;;;7.70;4.20;;;;;;;21.47;100.00;96483.66;5014689;28;20559;-86
2023/09/29 01:09:16;;;;;;;8.63;3.90;;;;;;;21.26;100.00;96484.84;5027758;28;20037;-86
2023/09/29 01:11:45;;;;;;;8.30;3.60;;;;;;;21.56;100.00;96476.94;5018133;28;20032;-86
2023/09/29 01:14:11;;;;;;;7.83;4.10;;;;;;;21.37;100.00;96476.13;5014295;28;20039;-86
2023/09/29 01:16:42;;;;;;;8.43;4.00;;;;;;;21.23;100.00;96480.75;5031608;28;20061;-86
2023/09/29 01:19:14;;;;;;;7.73;4.17;;;;;;;21.09;100.00;96482.75;5016109;28;20033;-86
2023/09/29 01:21:44;;;;;;;7.77;4.30;;;;;;;20.98;100.00;96472.75;5025543;28;20025;-86
2023/09/29 01:24:11;;;;;;;8.70;4.17;;;;;;;20.95;100.00;96468.66;5025392;28;20465;-86
2023/09/29 01:26:36;;;;;;;7.87;3.77;;;;;;;20.92;100.00;96468.28;5043423;28;20040;-86
2023/09/29 01:29:03;;;;;;;10.33;4.17;;;;;;;20.92;100.00;96466.44;5012487;28;20788;-86
2023/09/29 01:31:29;;;;;;;8.00;3.63;;;;;;;21.11;100.00;96463.78;5035341;28;20045;-85
2023/09/29 01:33:55;;;;;;;7.10;3.80;;;;;;;20.75;100.00;96483.22;5019643;28;20030;-86
2023/09/29 01:36:21;;;;;;;9.13;4.00;;;;;;;20.83;100.00;96474.94;5035747;28;20071;-86
2023/09/29 01:38:47;;;;;;;8.50;3.77;;;;;;;20.82;100.00;96478.63;5026222;28;20017;-86
2023/09/29 01:41:16;;;;;;;6.60;3.80;;;;;;;20.81;100.00;96477.81;5032373;28;20043;-86
2023/09/29 01:43:41;;;;;;;6.57;4.03;;;;;;;20.89;100.00;96474.91;5038792;28;20515;-86
2023/09/29 01:46:10;;;;;;;9.43;3.80;;;;;;;20.79;100.00;96469.22;5016517;28;20036;-85
2023/09/29 01:48:35;;;;;;;8.93;4.20;;;;;;;20.78;100.00;96478.25;5021555;28;20060;-86
2023/09/29 01:51:04;;;;;;;8.73;4.50;;;;;;;21.04;100.00;96481.75;5040373;28;20560;-86
2023/09/29 01:53:32;;;;;;;8.73;4.03;;;;;;;20.81;100.00;96477.00;5014110;28;20669;-86
2023/09/29 01:55:58;;;;;;;6.13;3.43;;;;;;;20.60;100.00;96480.88;5040735;28;20024;-86
2023/09/29 01:58:24;;;;;;;8.73;3.93;;;;;;;20.83;100.00;96470.41;5010020;28;20479;-86
2023/09/29 02:00:50;;;;;;;8.37;4.70;;;;;;;20.84;100.00;96474.72;5035302;28;20152;-86
2023/09/29 02:03:16;;;;;;;7.17;4.00;;;;;;;20.95;100.00;96473.19;5011520;28;20141;-86
2023/09/29 02:05:42;;;;;;;6.87;4.13;;;;;;;20.76;100.00;96475.00;5028998;28;20036;-86
2023/09/29 02:08:10;;;;;;;7.73;3.70;;;;;;;20.60;100.00;96470.19;5027266;28;20142;-86
2023/09/29 02:10:36;;;;;;;7.87;3.80;;;;;;;20.61;100.00;96474.47;5025780;28;20113;-86
2023/09/29 02:13:07;;;;;;;14.60;4.27;;;;;;;20.77;100.00;96471.28;5029856;28;20033;-85
2023/09/29 02:15:34;;;;;;;7.73;3.63;;;;;;;20.93;100.00;96467.25;5032003;28;20056;-86
2023/09/29 02:18:01;;;;;;;9.70;3.90;;;;;;;20.79;100.00;96461.19;5032938;28;20118;-85
2023/09/29 02:20:30;;;;;;;9.50;3.27;;;;;;;20.79;100.00;96473.72;5035225;28;20040;-86
2023/09/29 02:23:00;;;;;;;7.73;3.70;;;;;;;20.89;100.00;96472.22;5034534;28;20036;-86
2023/09/29 02:25:26;;;;;;;7.00;3.53;;;;;;;20.85;100.00;96468.31;5033329;28;20116;-86
2023/09/29 02:27:54;;;;;;;7.23;3.60;;;;;;;20.94;100.00;96460.84;5033560;28;20021;-86
2023/09/29 02:30:20;;;;;;;7.23;3.30;;;;;;;21.14;100.00;96466.84;5019607;28;20086;-86
2023/09/29 02:32:46;;;;;;;8.90;3.87;;;;;;;21.04;100.00;96463.03;5044854;28;20017;-86
2023/09/29 02:35:11;;;;;;;8.40;3.80;;;;;;;20.54;100.00;96471.84;5014839;28;20113;-85
2023/09/29 02:37:38;;;;;;;8.63;3.60;;;;;;;20.42;100.00;96468.19;5019076;28;20025;-85
2023/09/29 02:40:11;;;;;;;7.10;3.13;;;;;;;20.07;100.00;96465.94;5032767;28;20032;-86
2023/09/29 02:42:37;;;;;;;6.95;3.20;;;;;;;20.28;100.00;96462.13;5017887;28;20032;-86
2023/09/29 02:45:04;;;;;;;6.50;3.40;;;;;;;20.25;100.00;96462.53;5017831;28;20025;-85
2023/09/29 02:47:30;;;;;;;9.77;4.13;;;;;;;20.32;100.00;96462.50;5026048;28;20026;-86
2023/09/29 02:49:59;;;;;;;7.10;3.33;;;;;;;20.46;100.00;96464.09;5027246;28;20032;-86
2023/09/29 02:52:27;;;;;;;7.23;3.27;;;;;;;20.55;100.00;96475.34;5026968;28;20025;-85
2023/09/29 02:54:56;;;;;;;10.30;4.00;;;;;;;20.48;100.00;96465.47;5015147;28;20080;-85
2023/09/29 02:57:22;;;;;;;8.73;3.40;;;;;;;20.64;100.00;96460.69;5013182;28;20381;-85
2023/09/29 02:59:48;;;;;;;7.90;3.77;;;;;;;20.60;100.00;96467.50;5030892;28;20025;-86
2023/09/29 03:02:14;;;;;;;7.60;3.23;;;;;;;20.48;100.00;96467.34;5046387;28;20041;-86
2023/09/29 03:04:40;;;;;;;6.07;3.27;;;;;;;20.33;100.00;96464.16;5034214;28;20009;-85
2023/09/29 03:07:09;;;;;;;7.00;2.73;;;;;;;20.48;100.00;96459.31;5012872;28;20013;-86
2023/09/29 03:09:36;;;;;;;11.47;3.07;;;;;;;20.66;100.00;96453.28;5035965;28;21247;-86
2023/09/29 03:12:03;;;;;;;5.97;3.07;;;;;;;20.80;100.00;96457.47;5030208;28;20096;-86
2023/09/29 03:14:29;;;;;;;7.57;3.33;;;;;;;21.07;100.00;96460.75;5024813;28;20113;-86
2023/09/29 03:16:54;;;;;;;7.20;3.53;;;;;;;21.09;100.00;96457.84;5026967;28;20033;-86
2023/09/29 03:19:20;;;;;;;7.17;2.80;;;;;;;20.92;100.00;96457.56;5029634;28;20083;-86
2023/09/29 03:21:48;;;;;;;7.70;3.67;;;;;;;20.74;100.00;96455.69;5038111;28;20033;-86
2023/09/29 03:24:14;;;;;;;6.47;3.50;;;;;;;20.51;100.00;96471.47;5030180;28;20121;-86
2023/09/29 03:26:39;;;;;;;10.83;4.63;;;;;;;20.60;100.00;96454.16;5008606;28;20116;-86
2023/09/29 03:29:05;;;;;;;6.93;4.00;;;;;;;20.68;100.00;96456.53;5026933;28;20037;-86
2023/09/29 03:31:31;;;;;;;9.27;3.53;;;;;;;20.61;100.00;96455.78;5030782;28;20029;-85
2023/09/29 03:33:56;;;;;;;7.40;2.90;;;;;;;20.80;100.00;96451.31;5026517;28;20029;-86
2023/09/29 03:36:30;;;;;;;6.47;3.57;;;;;;;20.70;100.00;96460.63;5030292;28;20028;-86
2023/09/29 03:38:56;;;;;;;7.20;3.10;;;;;;;20.84;100.00;96456.00;5013498;28;20037;-86
2023/09/29 03:41:23;;;;;;;6.03;3.50;;;;;;;20.48;100.00;96470.81;5045310;28;20048;-85
2023/09/29 03:43:50;;;;;;;8.17;3.33;;;;;;;20.28;100.00;96456.78;5024967;28;20056;-85
2023/09/29 03:46:19;;;;;;;7.60;3.43;;;;;;;20.38;100.00;96461.66;5031198;28;20388;-86
2023/09/29 03:48:47;;;;;;;8.80;3.60;;;;;;;20.33;100.00;96466.84;5009334;28;20084;-86
2023/09/29 03:51:30;;;;;;;5.80;3.07;;;;;;;20.37;100.00;96460.84;5024405;28;20048;-86
2023/09/29 03:53:57;;;;;;;10.73;4.22;;;;;;;20.40;100.00;96459.59;5030941;28;20094;-85
2023/09/29 03:56:23;;;;;;;10.20;4.53;;;;;;;20.24;100.00;96455.56;5031404;28;20079;-85
2023/09/29 03:58:49;;;;;;;11.30;4.53;;;;;;;20.40;100.00;96456.94;5033786;28;20436;-86
2023/09/29 04:01:16;;;;;;;14.67;6.13;;;;;;;19.98;100.00;96461.88;5021543;28;20021;-85
2023/09/29 04:03:42;;;;;;;30.27;14.00;;;;;;;20.04;100.00;96462.88;5034047;28;20024;-85
2023/09/29 04:06:08;;;;;;;42.73;23.43;;;;;;;20.24;100.00;96461.72;5031074;28;20052;-83
2023/09/29 04:08:34;;;;;;;73.60;36.27;;;;;;;20.14;100.00;96453.38;5026368;28;20572;-86
2023/09/29 04:10:59;;;;;;;34.17;17.17;;;;;;;20.04;100.00;96446.84;5013718;28;20026;-86
2023/09/29 04:13:25;;;;;;;17.93;8.90;;;;;;;19.98;100.00;96456.53;5028630;28;20018;-86
2023/09/29 04:15:51;;;;;;;12.83;6.27;;;;;;;19.82;100.00;96462.34;5029124;28;20919;-85
2023/09/29 04:18:17;;;;;;;7.13;3.70;;;;;;;20.07;100.00;96459.78;5003848;28;20486;-86
2023/09/29 04:20:42;;;;;;;12.27;3.87;;;;;;;19.74;100.00;96466.09;5035405;28;20028;-86
2023/09/29 04:23:08;;;;;;;9.30;3.73;;;;;;;19.81;100.00;96461.53;5029489;28;20022;-85
2023/09/29 04:25:34;;;;;;;11.47;4.20;;;;;;;19.97;100.00;96458.38;5026985;28;20046;-86
2023/09/29 04:27:59;;;;;;;8.13;4.17;;;;;;;20.04;100.00;96460.22;5025522;28;20061;-85
2023/09/29 04:30:25;;;;;;;23.63;10.10;;;;;;;20.08;100.00;96456.06;5048563;28;20032;-85
2023/09/29 04:32:52;;;;;;;19.10;8.37;;;;;;;19.81;100.00;96461.53;5023725;28;20029;-86
2023/09/29 04:35:18;;;;;;;17.23;8.10;;;;;;;19.81;100.00;96464.22;5021511;28;20030;-86
2023/09/29 04:37:44;;;;;;;8.20;4.13;;;;;;;19.94;100.00;96456.13;5013690;28;20029;-86
2023/09/29 04:40:11;;;;;;;11.50;3.70;;;;;;;20.01;100.00;96451.59;5026226;28;20014;-86
2023/09/29 04:42:37;;;;;;;7.93;3.50;;;;;;;20.02;100.00;96453.25;5027358;28;20032;-86
2023/09/29 04:45:04;;;;;;;8.93;3.50;;;;;;;19.97;100.00;96450.38;5025957;28;20029;-85
2023/09/29 04:47:30;;;;;;;11.03;4.03;;;;;;;19.96;100.00;96454.09;5033354;28;20021;-85
2023/09/29 04:49:56;;;;;;;9.30;4.33;;;;;;;20.17;100.00;96452.94;5015479;28;20033;-86
2023/09/29 04:52:21;;;;;;;8.10;3.43;;;;;;;20.15;100.00;96454.19;5029516;28;20749;-85
2023/09/29 04:54:48;;;;;;;9.83;3.30;;;;;;;20.40;100.00;96459.59;5016234;28;20017;-85
2023/09/29 04:57:14;;;;;;;7.77;3.47;;;;;;;20.16;100.00;96453.19;5022032;28;20022;-85
2023/09/29 04:59:40;;;;;;;8.83;3.40;;;;;;;20.64;100.00;96474.06;5032307;28;20017;-86
2023/09/29 05:02:05;;;;;;;8.97;3.40;;;;;;;20.53;100.00;96464.06;5018943;28;20729;-86
2023/09/29 05:04:32;;;;;;;8.43;3.30;;;;;;;20.98;100.00;96470.06;5013141;28;20045;-85
2023/09/29 05:06:58;;;;;;;7.87;3.20;;;;;;;21.05;100.00;96472.69;5015320;28;20120;-85
2023/09/29 05:09:24;;;;;;;8.17;3.50;;;;;;;20.89;100.00;96466.88;5045565;28;20017;-83
2023/09/29 05:11:50;;;;;;;6.83;3.17;;;;;;;20.57;100.00;96467.94;5040230;28;20025;-84
2023/09/29 05:14:15;;;;;;;8.77;2.97;;;;;;;19.95;100.00;96476.47;5033573;28;20079;-84
2023/09/29 05:16:41;;;;;;;7.30;3.27;;;;;;;19.79;100.00;96471.63;5033046;28;20033;-84
2023/09/29 05:19:07;;;;;;;8.77;3.50;;;;;;;20.02;100.00;96463.91;5013547;28;20028;-84
2023/09/29 05:21:32;;;;;;;11.17;4.20;;;;;;;20.17;100.00;96460.13;5035908;28;20048;-85
2023/09/29 05:23:58;;;;;;;8.33;3.57;;;;;;;20.10;100.00;96467.38;5022474;28;20053;-85
2023/09/29 05:26:24;;;;;;;7.70;4.00;;;;;;;20.46;100.00;96480.09;5031637;28;20021;-85
2023/09/29 05:28:51;;;;;;;9.10;3.37;;;;;;;20.05;100.00;96484.00;5010378;28;20028;-85
2023/09/29 05:31:17;;;;;;;9.80;4.00;;;;;;;19.96;100.00;96479.97;5034420;28;20029;-85
2023/09/29 05:33:42;;;;;;;7.47;3.03;;;;;;;20.06;100.00;96480.34;5019264;28;20108;-84
2023/09/29 05:36:09;;;;;;;10.10;3.67;;;;;;;19.90;100.00;96481.63;5034640;28;20025;-85
2023/09/29 05:38:34;;;;;;;7.57;3.33;;;;;;;20.06;100.00;96476.84;5030747;28;20025;-84
2023/09/29 05:41:00;;;;;;;6.20;3.27;;;;;;;20.17;100.00;96476.16;5022641;28;20119;-85
2023/09/29 05:43:26;;;;;;;8.33;3.40;;;;;;;20.65;100.00;96478.34;5031999;28;20075;-84
2023/09/29 05:45:51;;;;;;;9.07;3.40;;;;;;;20.66;100.00;96477.34;5043412;28;20021;-85
2023/09/29 05:48:17;;;;;;;7.67;3.50;;;;;;;20.68;100.00;96485.94;5010735;28;20834;-84
2023/09/29 05:50:43;;;;;;;7.57;3.60;;;;;;;20.47;100.00;96479.88;5032651;28;20025;-85
2023/09/29 05:53:08;;;;;;;8.87;3.30;;;;;;;20.45;100.00;96489.13;5032125;28;20033;-85
2023/09/29 05:55:34;;;;;;;7.20;3.20;;;;;;;20.79;100.00;96485.25;5020048;28;20029;-86
2023/09/29 05:58:00;;;;;;;5.90;3.00;;;;;;;20.74;100.00;96477.06;5028821;28;20495;-85
2023/09/29 06:00:26;;;;;;;6.20;3.33;;;;;;;20.88;100.00;96486.59;5029190;28;20029;-85
2023/09/29 06:02:52;;;;;;;7.90;3.60;;;;;;;21.13;100.00;96491.16;5036333;28;20484;-85
2023/09/29 06:05:19;;;;;;;7.97;2.90;;;;;;;21.60;100.00;96491.53;5020724;28;20025;-85
2023/09/29 06:07:46;;;;;;;6.80;2.90;;;;;;;22.02;100.00;96500.50;5029693;28;20163;-84
2023/09/29 06:10:12;;;;;;;7.77;3.27;;;;;;;21.48;100.00;96498.66;5017265;28;20026;-85
2023/09/29 06:12:37;;;;;;;7.13;2.88;;;;;;;21.86;100.00;96501.94;5006618;28;20090;-85
2023/09/29 06:15:05;;;;;;;7.22;3.45;;;;;;;22.42;100.00;96509.94;5039593;28;20072;-85
2023/09/29 06:17:31;;;;;;;8.13;3.40;;;;;;;22.34;100.00;96514.56;5034238;28;20074;-85
2023/09/29 06:19:57;;;;;;;11.75;3.88;;;;;;;22.48;100.00;96507.16;5037005;28;20029;-85
2023/09/29 06:22:22;;;;;;;9.50;4.35;;;;;;;22.87;97.91;96513.00;5042474;28;20033;-85
2023/09/29 06:24:48;;;;;;;9.82;3.92;;;;;;;22.31;100.00;96514.19;5031030;28;20022;-85
2023/09/29 06:27:14;;;;;;;10.40;4.25;;;;;;;21.77;100.00;96526.56;5016506;28;20060;-85
2023/09/29 06:29:40;;;;;;;6.90;3.92;;;;;;;21.77;100.00;96530.06;5022041;28;20039;-85
2023/09/29 06:32:08;;;;;;;8.75;3.65;;;;;;;22.15;100.00;96534.38;5026631;28;20076;-85
2023/09/29 06:34:35;;;;;;;6.97;3.47;;;;;;;23.04;97.24;96534.63;5030000;28;20025;-84
2023/09/29 06:37:01;;;;;;;8.88;3.75;;;;;;;23.81;93.69;96531.88;5030165;28;20108;-85
2023/09/29 06:39:30;;;;;;;6.80;3.42;;;;;;;23.86;88.59;96528.47;5012573;28;20044;-85
2023/09/29 06:41:56;;;;;;;12.13;3.90;;;;;;;24.70;79.29;96526.94;5028482;28;20036;-85
2023/09/29 06:44:23;;;;;;;7.80;4.43;;;;;;;24.20;82.81;96527.56;5013764;28;20021;-85
2023/09/29 06:46:49;;;;;;;11.48;4.63;;;;;;;24.92;76.91;96529.75;5020684;28;20021;-84
2023/09/29 06:49:14;;;;;;;13.35;5.63;;;;;;;25.06;72.99;96524.06;5012493;28;20026;-84
2023/09/29 06:51:40;;;;;;;16.38;6.43;;;;;;;25.47;69.20;96525.53;5037202;28;20091;-84
2023/09/29 06:54:06;;;;;;;10.30;5.53;;;;;;;25.95;65.01;96520.56;5013838;28;20032;-84
2023/09/29 06:56:32;;;;;;;8.85;4.70;;;;;;;25.72;65.56;96522.41;5036897;28;20032;-84
2023/09/29 06:58:57;;;;;;;9.38;4.28;;;;;;;25.76;67.43;96520.84;5009498;28;20025;-84
2023/09/29 07:01:26;;;;;;;7.53;3.97;;;;;;;24.64;74.99;96533.25;5019663;28;20017;-84
2023/09/29 07:03:51;;;;;;;7.10;3.55;;;;;;;24.24;80.92;96533.28;5030518;28;20092;-84
2023/09/29 07:06:18;;;;;;;6.93;3.63;;;;;;;23.84;84.85;96527.88;5016405;28;20583;-84
2023/09/29 07:08:45;;;;;;;8.50;4.00;;;;;;;25.36;74.14;96523.75;5025652;28;20029;-85
2023/09/29 07:11:10;;;;;;;11.18;3.90;;;;;;;25.91;67.61;96522.13;5025928;28;20383;-84
2023/09/29 07:13:36;;;;;;;7.93;4.03;;;;;;;26.37;66.29;96528.91;5004891;28;20021;-84
2023/09/29 07:16:03;;;;;;;7.75;3.97;;;;;;;27.25;59.22;96523.31;5034002;28;20051;-84
2023/09/29 07:18:28;;;;;;;6.78;3.47;;;;;;;27.51;58.43;96532.44;5036755;28;20021;-84
2023/09/29 07:20:56;;;;;;;7.45;3.15;;;;;;;27.26;60.20;96525.78;5012525;28;20128;-84
2023/09/29 07:23:23;;;;;;;8.55;3.45;;;;;;;27.27;59.02;96534.69;5011932;28;20025;-84
2023/09/29 07:25:51;;;;;;;7.18;3.30;;;;;;;27.44;57.20;96538.06;5028707;28;20449;-84
2023/09/29 07:28:17;;;;;;;5.70;2.78;;;;;;;28.25;52.57;96539.63;5019078;28;20108;-84
2023/09/29 07:30:43;;;;;;;6.55;2.92;;;;;;;29.37;48.83;96539.84;5012617;28;21176;-85
2023/09/29 07:33:09;;;;;;;14.55;3.42;;;;;;;28.27;50.19;96537.47;5031466;28;20047;-84
2023/09/29 07:35:36;;;;;;;8.27;2.78;;;;;;;29.01;49.01;96540.97;5014645;28;20479;-85
2023/09/29 07:38:02;;;;;;;7.53;2.92;;;;;;;30.21;44.13;96526.72;5016102;28;20049;-84
2023/09/29 07:40:27;;;;;;;6.85;3.15;;;;;;;29.14;44.96;96537.69;5038040;28;20441;-85
2023/09/29 07:42:53;;;;;;;5.78;2.65;;;;;;;29.22;44.71;96531.75;5017618;28;20017;-83
2023/09/29 07:45:20;;;;;;;6.55;3.80;;;;;;;28.98;45.78;96522.50;5031457;28;20028;-84
2023/09/29 07:47:45;;;;;;;7.05;3.17;;;;;;;29.10;47.36;96529.28;5031594;28;20025;-84
2023/09/29 07:50:11;;;;;;;4.95;2.67;;;;;;;29.59;45.76;96533.34;5011013;28;20076;-85
2023/09/29 07:52:40;;;;;;;5.70;3.22;;;;;;;30.79;44.61;96528.91;5025052;28;20052;-85
2023/09/29 07:55:07;;;;;;;8.52;4.93;;;;;;;30.39;45.27;96530.72;5032179;28;20028;-85
2023/09/29 07:57:33;;;;;;;9.30;4.35;;;;;;;30.85;45.14;96526.97;5029957;28;20025;-85
2023/09/29 07:59:58;;;;;;;8.52;3.50;;;;;;;30.36;45.79;96527.75;5035987;28;20499;-84
2023/09/29 08:02:25;;;;;;;9.23;4.50;;;;;;;30.62;46.38;96523.81;5035291;28;20036;-85
2023/09/29 08:04:51;;;;;;;8.00;3.53;;;;;;;30.69;44.08;96529.75;5028474;28;20444;-84
2023/09/29 08:07:17;;;;;;;6.70;3.42;;;;;;;31.57;42.36;96522.59;5011295;28;20112;-84
2023/09/29 08:09:43;;;;;;;5.82;2.88;;;;;;;30.58;43.09;96530.88;5042640;28;20025;-84
2023/09/29 08:12:08;;;;;;;8.63;3.47;;;;;;;30.84;42.95;96530.78;5010692;28;20033;-85
2023/09/29 08:14:34;;;;;;;4.93;2.80;;;;;;;30.57;43.23;96523.84;5036356;28;20075;-84
2023/09/29 08:16:59;;;;;;;7.03;3.67;;;;;;;30.66;41.71;96530.31;5020731;28;20036;-84
2023/09/29 08:19:25;;;;;;;6.95;3.00;;;;;;;30.75;43.43;96534.06;5029145;28;20673;-84
2023/09/29 08:21:51;;;;;;;8.80;3.10;;;;;;;31.30;42.04;96535.88;5028515;28;20488;-85
2023/09/29 08:24:16;;;;;;;5.38;2.88;;;;;;;31.48;42.06;96532.47;5030439;28;20025;-84
2023/09/29 08:26:42;;;;;;;7.70;2.78;;;;;;;31.21;41.08;96524.78;5037315;28;20128;-84
2023/09/29 08:29:09;;;;;;;4.90;2.60;;;;;;;30.83;40.25;96535.41;5038537;28;20047;-84
2023/09/29 08:31:36;;;;;;;7.13;2.70;;;;;;;31.10;38.87;96545.81;5030154;28;20739;-85
2023/09/29 08:34:03;;;;;;;6.35;2.72;;;;;;;32.05;38.58;96547.16;5015519;28;20021;-84
2023/09/29 08:36:29;;;;;;;7.53;2.70;;;;;;;32.10;38.92;96536.22;5018172;28;20029;-84
2023/09/29 08:38:54;;;;;;;6.78;2.88;;;;;;;30.98;40.76;96542.63;5038091;28;20021;-84
2023/09/29 08:41:26;;;;;;;7.18;2.88;;;;;;;30.81;42.20;96553.06;5047700;28;20031;-84
2023/09/29 08:43:51;;;;;;;5.32;2.80;;;;;;;30.65;43.32;96533.28;5014811;28;20017;-82
2023/09/29 08:46:18;;;;;;;5.68;2.65;;;;;;;31.05;42.10;96543.09;5022039;28;20028;-84
2023/09/29 08:48:46;;;;;;;6.60;3.10;;;;;;;31.18;43.10;96537.03;5007327;28;20029;-82
2023/09/29 08:51:15;;;;;;;5.72;3.20;;;;;;;31.36;42.79;96542.94;5022685;28;20441;-83
2023/09/29 08:53:44;;;;;;;8.10;3.40;;;;;;;31.98;41.65;96530.38;5037991;28;20021;-82
2023/09/29 08:56:16;;;;;;;8.88;3.35;;;;;;;31.80;41.48;96537.34;5033511;28;20030;-83
2023/09/29 08:58:42;;;;;;;7.53;3.30;;;;;;;31.74;42.15;96529.53;5017978;28;20039;-83
2023/09/29 09:01:08;;;;;;;9.70;3.15;;;;;;;30.62;43.79;96545.53;5026667;28;20028;-83
2023/09/29 09:03:34;;;;;;;6.55;3.17;;;;;;;31.45;44.60;96544.72;5020848;28;20029;-82
2023/09/29 09:06:00;;;;;;;6.65;3.25;;;;;;;31.61;45.15;96541.88;5038130;28;20111;-83
2023/09/29 09:08:26;;;;;;;6.28;3.08;;;;;;;31.11;45.68;96541.19;5038796;28;20028;-82
2023/09/29 09:10:59;;;;;;;9.98;2.78;;;;;;;31.60;44.00;96538.34;5026912;28;20017;-83
2023/09/29 09:13:28;;;;;;;8.90;5.13;;;;;;;31.77;45.22;96543.34;5033379;28;20079;-82
2023/09/29 09:15:57;;;;;;;8.73;3.63;;;;;;;32.39;44.83;96538.03;5025774;28;20021;-82
2023/09/29 09:18:25;;;;;;;8.75;4.60;;;;;;;31.81;43.34;96547.09;5026286;28;20022;-82
2023/09/29 09:20:54;;;;;;;6.13;3.53;;;;;;;31.34;43.83;96537.75;5027131;28;20919;-82
2023/09/29 09:23:20;;;;;;;5.50;3.10;;;;;;;32.09;44.13;96540.06;5033247;28;20025;-82
2023/09/29 09:25:46;;;;;;;5.28;2.72;;;;;;;32.08;43.05;96532.97;5015075;28;20025;-82
2023/09/29 09:28:19;;;;;;;9.85;5.15;;;;;;;31.61;40.39;96536.44;5022609;28;20141;-82
2023/09/29 09:30:46;;;;;;;5.72;3.00;;;;;;;31.67;40.50;96538.81;5033334;28;20035;-82
2023/09/29 09:33:22;;;;;;;6.57;3.70;;;;;;;31.31;40.47;96534.78;5034025;28;20035;-82
2023/09/29 09:35:49;;;;;;;5.30;2.75;;;;;;;31.40;39.77;96535.81;5027879;28;20367;-83
2023/09/29 09:38:15;;;;;;;3.92;2.00;;;;;;;31.92;39.34;96528.78;5013800;28;20108;-82
2023/09/29 09:40:42;;;;;;;5.07;2.60;;;;;;;32.18;40.38;96532.03;5025265;28;20124;-82
2023/09/29 09:43:09;;;;;;;5.95;2.90;;;;;;;32.27;40.16;96541.19;5035120;28;20378;-82
2023/09/29 09:45:43;;;;;;;4.47;2.30;;;;;;;31.91;39.56;96540.78;5021534;28;20153;-82
2023/09/29 09:48:10;;;;;;;5.40;2.70;;;;;;;32.20;40.01;96534.50;5020454;28;20119;-82
2023/09/29 09:50:36;;;;;;;7.05;2.72;;;;;;;33.71;38.72;96539.94;5046334;28;20021;-84
2023/09/29 09:53:08;;;;;;;4.65;2.35;;;;;;;34.16;37.87;96521.91;5023153;28;20021;-84
2023/09/29 09:55:43;;;;;;;3.70;2.42;;;;;;;34.55;36.84;96527.97;5020827;28;20014;-83
2023/09/29 09:58:16;;;;;;;4.30;2.35;;;;;;;34.17;36.14;96519.97;5018261;28;20026;-82
2023/09/29 10:00:46;;;;;;;4.22;2.55;;;;;;;35.71;36.27;96523.59;5019741;28;20410;-83
2023/09/29 10:03:16;;;;;;;4.88;2.40;;;;;;;36.02;35.11;96523.63;5030554;28;20433;-83
2023/09/29 10:05:52;;;;;;;4.55;2.42;;;;;;;35.73;35.58;96520.56;5030870;28;20036;-83
2023/09/29 10:08:27;;;;;;;5.25;1.90;;;;;;;35.61;34.68;96521.91;5037875;28;20067;-83
2023/09/29 10:10:53;;;;;;;3.20;1.83;;;;;;;35.60;34.19;96519.50;5024199;28;20105;-83
2023/09/29 10:13:19;;;;;;;3.58;2.15;;;;;;;36.01;33.08;96529.38;5035835;28;20026;-84
2023/09/29 10:15:55;;;;;;;4.03;2.33;;;;;;;35.41;35.36;96530.63;5034934;28;20059;-83
2023/09/29 10:18:23;;;;;;;4.80;2.72;;;;;;;34.55;35.31;96526.06;5041911;28;20033;-83
2023/09/29 10:21:00;;;;;;;4.38;2.10;;;;;;;34.23;34.54;96527.75;5002024;28;20021;-83
2023/09/29 10:23:26;;;;;;;3.58;2.17;;;;;;;33.70;36.26;96530.13;5035400;28;20442;-83
2023/09/29 10:25:58;;;;;;;5.13;2.55;;;;;;;33.92;35.90;96521.28;5039749;28;20029;-83
2023/09/29 10:28:31;;;;;;;3.20;2.08;;;;;;;33.85;37.00;96518.94;5030269;28;20071;-83
2023/09/29 10:31:15;;;;;;;5.15;2.30;;;;;;;34.10;38.11;96519.59;5015895;28;20083;-83
2023/09/29 10:33:56;;;;;;;6.18;2.42;;;;;;;34.55;35.75;96512.41;5032018;28;20403;-82
2023/09/29 10:36:28;;;;;;;4.53;2.67;;;;;;;35.10;35.24;96519.63;5031504;28;20029;-83
2023/09/29 10:38:57;;;;;;;5.38;2.42;;;;;;;35.35;35.55;96524.50;5036240;28;20020;-83
2023/09/29 10:41:24;;;;;;;5.32;2.65;;;;;;;37.05;33.00;96516.72;5033259;28;20119;-83
2023/09/29 10:43:50;;;;;;;3.55;2.03;;;;;;;36.73;33.18;96512.53;5037407;28;20040;-83
2023/09/29 10:46:18;;;;;;;9.10;2.08;;;;;;;36.89;33.33;96509.28;5020797;28;20079;-82
2023/09/29 10:48:48;;;;;;;4.90;2.53;;;;;;;36.90;31.06;96502.69;5013509;28;20041;-83
2023/09/29 10:51:27;;;;;;;5.22;2.50;;;;;;;37.24;31.54;96504.63;5027244;28;20087;-83
2023/09/29 10:53:53;;;;;;;3.47;2.35;;;;;;;36.02;32.05;96501.72;5031003;28;20049;-83
2023/09/29 10:56:25;;;;;;;3.75;1.95;;;;;;;35.37;32.72;96508.56;5011686;28;20449;-83
2023/09/29 10:58:52;;;;;;;4.13;2.30;;;;;;;36.06;31.58;96501.88;5005032;28;20017;-83
2023/09/29 11:01:27;;;;;;;5.97;2.40;;;;;;;36.71;31.88;96509.28;5044835;28;20501;-83
2023/09/29 11:03:56;;;;;;;4.20;2.40;;;;;;;36.56;32.68;96505.09;5040715;28;20109;-83
2023/09/29 11:06:22;;;;;;;5.05;2.47;;;;;;;36.00;32.46;96503.13;5014973;28;20048;-84
2023/09/29 11:08:57;;;;;;;5.20;2.40;;;;;;;35.77;32.25;96510.59;5021565;28;20048;-84
2023/09/29 11:11:36;;;;;;;3.78;2.42;;;;;;;36.64;31.79;96505.41;5029945;28;20395;-84
2023/09/29 11:14:05;;;;;;;5.45;2.35;;;;;;;36.88;31.08;96497.53;5024210;28;20084;-84
2023/09/29 11:16:32;;;;;;;5.00;2.25;;;;;;;36.47;31.46;96492.47;5030510;28;20033;-84
2023/09/29 11:19:12;;;;;;;4.10;2.28;;;;;;;36.93;31.65;96496.56;5030944;28;20112;-83
2023/09/29 11:21:39;;;;;;;4.38;2.30;;;;;;;36.71;31.29;96484.63;5022706;28;20017;-84
2023/09/29 11:24:13;;;;;;;4.07;2.47;;;;;;;36.40;31.73;96487.47;5033547;28;20021;-83
2023/09/29 11:26:47;;;;;;;5.07;2.20;;;;;;;36.41;31.80;96480.84;5034803;28;20030;-84